METAR Data
IDs: Format: Raw Decoded Include TAF

Data at: 0857 UTC 09 Apr 2020

Region: TOP
KATL 090852Z 27008KT 8SM FEW007 SCT120 BKN140 BKN250 20/18 A2974 RMK AO2 SLP061 OCNL LTGIC DSNT N AND W-NW CB DSNT N AND W-NW T02000178 55001

KBOS 090854Z 20007KT 10SM FEW010 FEW150 SCT250 06/03 A2958 RMK AO2 SLP015 T00560033 56004

KBWI 090854Z 07005KT 6SM BR BKN180 OVC240 12/09 A2947 RMK AO2 SLP980 T01170094 58031

KCLE 090851Z 26006KT 10SM FEW009 BKN032 OVC041 10/08 A2947 RMK AO2 SLP977 T01000078 58002

KCLT 090852Z 21007KT 10SM BKN250 17/13 A2961 RMK AO2 SLP017 T01670128 55019 $

KCVG 090852Z 31018G25KT 10SM FEW023 SCT029 12/09 A2964 RMK AO2 SLP028 T01220089 53010 $

KDCA 090852Z 00000KT 10SM OVC200 14/10 A2947 RMK AO2 SLP978 T01440100 58033

KDEN 090853Z 34007KT 10SM FEW250 02/M02 A3012 RMK AO2 SLP161 T00221017 57002

KDFW 090853Z 04005KT 10SM SCT250 BKN300 19/12 A2984 RMK AO2 SLP095 T01890122 53006

KDTW 090853Z 36016G31KT 10SM SCT022 BKN040 OVC075 06/03 A2951 RMK AO2 PK WND 01031/0845 WSHFT 0835 PRESRR SLP993 T00610028 53002 $

KEWR 090851Z 00000KT 10SM BKN031 BKN250 09/07 A2956 RMK AO2 SLP011 T00940072 58024

KFLL 090853Z AUTO 26011KT 10SM BKN009 23/21 A2986 RMK AO2 SLP112 T02280211 56018 $

KIAD 090852Z 00000KT 10SM FEW120 BKN150 OVC230 11/08 A2948 RMK AO2 SLP979 T01060083 56031

KIAH 090853Z VRB03KT 7SM FEW220 23/21 A2984 RMK AO2 SLP104 T02280211 58016

KJFK 090851Z 14003KT 10SM BKN010 BKN031 OVC250 08/07 A2957 RMK AO2 SLP012 BKN010 V SCT T00780072 58023

KLAS 090756Z 19007KT 10SM FEW075 BKN160 11/01 A3003 RMK AO2 SLP158 T01060011 402170106

KLAX 090853Z 08008KT 10SM -RA FEW015 BKN042 BKN055 12/08 A3010 RMK AO2 RAE03B45 SLP190 P0000 60001 T01170078 51000 $

KLGA 090751Z 20004KT 10SM FEW030 FEW250 09/06 A2958 RMK AO2 SLP017 T00940056

KMCO 090853Z 27009KT 10SM SCT008 23/21 A2984 RMK AO2 SLP101 T02280211 56013 $

KMDW 090853Z 30015G24KT 10SM FEW090 07/M03 A2974 RMK AO2 PK WND 30032/0824 SLP069 T00671028 53012

KMEM 090854Z 02020G27KT 10SM CLR 17/11 A2984 RMK AO2 PK WND 36032/0831 PRESRR SLP100 T01720106 53052

KMIA 090853Z 27006KT 10SM OVC009 24/22 A2988 RMK AO2 SLP118 T02390217 56020

KMSP 090853Z 29011KT 10SM CLR 02/M06 A2985 RMK AO2 SLP112 T00171056 58008 $

KORD 090851Z 28012G22KT 10SM FEW090 07/M03 A2973 RMK AO2 PK WND 28027/0801 SLP068 T00671028 53014

KPDX 090853Z 00000KT 10SM CLR 10/05 A3014 RMK AO2 SLP203 T01000050 58001

KPHL 090854Z 08005KT 10SM BKN025 OVC040 09/07 A2953 RMK AO2 SLP000 T00890067 58027

KPHX 090851Z 28005KT 10SM FEW095 14/04 A3005 RMK AO2 SLP164 T01440044 53003

KPIT 090851Z 24005KT 10SM FEW075 BKN150 OVC250 11/08 A2941 RMK AO2 SLP961 60007 T01110083 55045 $

KSAN 090851Z 13009KT 10SM -RA SCT036 OVC055 14/10 A3013 RMK AO2 RAB49 SLP201 VCSH P0000 60000 T01440100 58001

KSEA 090853Z 04008KT 10SM FEW250 09/03 A3021 RMK AO2 SLP235 T00890028 57003

KSFO 090756Z 20006KT 10SM FEW025 SCT031 SCT200 12/08 A2996 RMK AO2 SLP146 T01170078 401670100

KSLC 090854Z 32006KT 10SM CLR 10/01 A2996 RMK AO2 SLP110 T01000011 58009

KSTL 090851Z 32007KT 10SM CLR 11/02 A2996 RMK AO2 SLP136 T01060017 53014 $

KTPA 090853Z 24008KT 10SM SCT010 BKN020 24/22 A2986 RMK AO2 SLP110 T02390217 56016